Michipicoten — CFG8060 — position and weather

sailwx.info

Track history (hours):
 
Tides and Currents Weather Stations Pressure Air Temp Water Temp Dewpoint Dewpoint Depression Visibility Wind Speed Wind Dir Waves Ship Positions

Michipicoten

Last reported at 2014-Sep-18 11:19 UTC. Time now 2014-Sep-18 15:42 UTC.
Position N 46°31' W 084°23'.

Length 212 m.

Type: Ship. MMSI: 316002501.

Date/timePositionNaut miles runAvg speedWind from/ knotsBaromVisibWave heightAir tempDewpointWater temp
2014-Sep-18 11:19N 46°31' W 084°23'17 0.6
2014-Sep-17 05:11N 46°36' W 084°46'1313.4
2014-Sep-17 04:14N 46°27' W 084°33'8 4.6
2014-Sep-17 02:29N 46°31' W 084°23'5 0.1
2014-Sep-15 08:33N 46°28' W 084°29'5 5.4
2014-Sep-15 07:33N 46°31' W 084°23'  
2014-Sep-12 13:09N 46°31' W 084°23'0 0.0
2014-Sep-12 12:24N 46°31' W 084°23'0 0.0
2014-Sep-10 13:03N 46°31' W 084°23'0 0.0
2014-Sep-10 12:22N 46°31' W 084°23'0 0.0
2014-Sep-10 11:33N 46°31' W 084°23'0 0.0
2014-Sep-10 09:33N 46°31' W 084°23'2 1.7
2014-Sep-10 08:33N 46°30' W 084°24'9 3.0
2014-Sep-10 05:30N 46°24' W 084°14'10 7.9
2014-Sep-10 04:11N 46°15' W 084°06'5 8.5
2014-Sep-10 03:33N 46°10' W 084°04'1110.9
2014-Sep-10 02:33N 46°02' W 083°53'3 2.9
2014-Sep-10 01:33N 45°59' W 083°53'0 0.0
2014-Sep-10 00:33N 45°59' W 083°53'0 0.0
2014-Sep-09 23:33N 45°59' W 083°53'0 0.0
2014-Sep-09 22:33N 45°59' W 083°53'0 0.0
2014-Sep-09 21:33N 45°59' W 083°53'0 0.0
2014-Sep-09 20:33N 45°59' W 083°53'0 0.0
2014-Sep-09 19:33N 45°59' W 083°53'0 0.0
2014-Sep-09 18:33N 45°59' W 083°53'0 0.0
2014-Sep-09 17:33N 45°59' W 083°53'0 0.0
2014-Sep-09 16:33N 45°59' W 083°53'0 0.4
2014-Sep-09 15:33N 45°59' W 083°53'9 9.5
2014-Sep-09 14:33N 46°07' W 084°01'1310.2
2014-Sep-09 13:19N 46°17' W 084°13'6 8.4
2014-Sep-09 12:33N 46°23' W 084°14'8 7.1
2014-Sep-09 11:23N 46°30' W 084°21'1 1.6
2014-Sep-09 10:33N 46°30' W 084°23'1 1.0
2014-Sep-09 09:31N 46°31' W 084°23'0 0.0
2014-Sep-09 07:24N 46°31' W 084°23'0 0.0
2014-Sep-09 05:33N 46°31' W 084°23'2 2.1
2014-Sep-09 04:33N 46°30' W 084°25'9 9.2
2014-Sep-09 03:32N 46°31' W 084°38'1313.4
2014-Sep-09 02:33N 46°42' W 084°50'97 7.5
2014-Sep-08 13:33N 46°37' W 087°11'1613.8
2014-Sep-08 12:24N 46°43' W 086°49'  
Track history (hours):
 
Tides and Currents Weather Stations Pressure Air Temp Water Temp Dewpoint Dewpoint Depression Visibility Wind Speed Wind Dir Waves Ship Positions

Michipicoten

Last reported at 2014-Sep-18 11:19 UTC. Time now 2014-Sep-18 15:42 UTC.
Position N 46°31' W 084°23'.

Length 212 m.

Type: Ship. MMSI: 316002501.

Date/timePositionNaut miles runAvg speedWind from/ knotsBaromVisibWave heightAir tempDewpointWater temp
2014-Sep-18 11:19N 46°31' W 084°23'17 0.6
2014-Sep-17 05:11N 46°36' W 084°46'1313.4
2014-Sep-17 04:14N 46°27' W 084°33'8 4.6
2014-Sep-17 02:29N 46°31' W 084°23'5 0.1
2014-Sep-15 08:33N 46°28' W 084°29'5 5.4
2014-Sep-15 07:33N 46°31' W 084°23'  
2014-Sep-12 13:09N 46°31' W 084°23'0 0.0
2014-Sep-12 12:24N 46°31' W 084°23'0 0.0
2014-Sep-10 13:03N 46°31' W 084°23'0 0.0
2014-Sep-10 12:22N 46°31' W 084°23'0 0.0
2014-Sep-10 11:33N 46°31' W 084°23'0 0.0
2014-Sep-10 09:33N 46°31' W 084°23'2 1.7
2014-Sep-10 08:33N 46°30' W 084°24'9 3.0
2014-Sep-10 05:30N 46°24' W 084°14'10 7.9
2014-Sep-10 04:11N 46°15' W 084°06'5 8.5
2014-Sep-10 03:33N 46°10' W 084°04'1110.9
2014-Sep-10 02:33N 46°02' W 083°53'3 2.9
2014-Sep-10 01:33N 45°59' W 083°53'0 0.0
2014-Sep-10 00:33N 45°59' W 083°53'0 0.0
2014-Sep-09 23:33N 45°59' W 083°53'0 0.0
2014-Sep-09 22:33N 45°59' W 083°53'0 0.0
2014-Sep-09 21:33N 45°59' W 083°53'0 0.0
2014-Sep-09 20:33N 45°59' W 083°53'0 0.0
2014-Sep-09 19:33N 45°59' W 083°53'0 0.0
2014-Sep-09 18:33N 45°59' W 083°53'0 0.0
2014-Sep-09 17:33N 45°59' W 083°53'0 0.0
2014-Sep-09 16:33N 45°59' W 083°53'0 0.4
2014-Sep-09 15:33N 45°59' W 083°53'9 9.5
2014-Sep-09 14:33N 46°07' W 084°01'1310.2
2014-Sep-09 13:19N 46°17' W 084°13'6 8.4
2014-Sep-09 12:33N 46°23' W 084°14'8 7.1
2014-Sep-09 11:23N 46°30' W 084°21'1 1.6
2014-Sep-09 10:33N 46°30' W 084°23'1 1.0
2014-Sep-09 09:31N 46°31' W 084°23'0 0.0
2014-Sep-09 07:24N 46°31' W 084°23'0 0.0
2014-Sep-09 05:33N 46°31' W 084°23'2 2.1
2014-Sep-09 04:33N 46°30' W 084°25'9 9.2
2014-Sep-09 03:32N 46°31' W 084°38'1313.4
2014-Sep-09 02:33N 46°42' W 084°50'97 7.5
2014-Sep-08 13:33N 46°37' W 087°11'1613.8
2014-Sep-08 12:24N 46°43' W 086°49'  

Dump ship's entire track history